Time;durP1;ratioP1;P1;durP2;ratioP2;P2;SDS_P1;SDS_P2;PMS_P1;PMS_P2;Temp;Humidity;BMP_temperature;BMP_pressure;BME280_temperature;BME280_humidity;BME280_pressure;Samples;Min_cycle;Max_cycle;Signal;HPM_P1;HPM_P2
2022/11/02 04:03:45;;;;;;;2.40;2.30;;;9.20;99.90;;;;;;6238382;22;20261;31
2022/11/02 04:06:11;;;;;;;1.95;1.85;;;9.20;99.90;;;;;;4992435;28;20567;-63
2022/11/02 04:08:41;;;;;;;2.70;2.50;;;9.10;99.90;;;;;;4994957;28;20170;-61
2022/11/02 04:16:35;;;;;;;2.50;2.30;;;9.10;99.90;;;;;;4994302;28;20652;-63
2022/11/02 04:27:14;;;;;;;1.90;1.80;;;9.20;99.90;;;;;;4994329;28;20206;-65
2022/11/02 04:29:40;;;;;;;3.43;1.90;;;9.30;99.90;;;;;;4994498;28;20639;-65
2022/11/02 04:32:05;;;;;;;3.50;3.20;;;9.20;99.90;;;;;;4994787;28;20960;-63
2022/11/02 04:34:31;;;;;;;2.80;2.60;;;9.20;99.90;;;;;;4992819;28;20198;-64
2022/11/02 04:36:57;;;;;;;1.70;1.60;;;9.30;99.90;;;;;;4994200;28;20180;-65
2022/11/02 04:39:22;;;;;;;1.97;1.87;;;9.20;99.90;;;;;;4994221;28;20210;-64
2022/11/02 04:41:48;;;;;;;2.13;2.03;;;9.20;99.90;;;;;;4994311;28;20172;-65
2022/11/02 04:44:14;;;;;;;2.53;2.20;;;9.20;99.90;;;;;;4993957;28;20545;-65
2022/11/02 04:46:41;;;;;;;1.77;1.67;;;9.20;99.90;;;;;;4994020;28;20543;-63
2022/11/02 04:49:07;;;;;;;1.55;1.45;;;9.20;99.90;;;;;;4994427;28;20648;-65
2022/11/02 04:51:34;;;;;;;1.85;1.75;;;9.30;99.90;;;;;;4994414;28;20693;-63
2022/11/02 04:53:59;;;;;;;1.38;1.33;;;9.30;99.90;;;;;;4993682;28;20274;-63
2022/11/02 04:56:26;;;;;;;2.53;2.33;;;9.30;99.90;;;;;;4993943;28;20250;-63
2022/11/02 04:58:55;;;;;;;1.95;1.83;;;9.30;99.90;;;;;;4994040;28;20225;-64
2022/11/02 05:01:21;;;;;;;1.75;1.65;;;9.30;99.90;;;;;;4993791;28;20206;-63
2022/11/02 05:03:48;;;;;;;1.67;1.42;;;9.30;99.90;;;;;;4993710;28;20191;-64
2022/11/02 05:06:14;;;;;;;1.75;1.65;;;9.30;99.90;;;;;;4993581;28;20236;-63
2022/11/02 05:08:40;;;;;;;1.85;1.75;;;9.40;99.90;;;;;;4993916;28;20647;-65
2022/11/02 05:11:05;;;;;;;1.83;1.73;;;9.40;99.90;;;;;;4976558;28;20300;-64
2022/11/02 05:13:32;;;;;;;2.13;1.93;;;9.30;99.90;;;;;;4993503;28;20233;-63
2022/11/02 05:15:58;;;;;;;1.75;1.65;;;9.30;99.90;;;;;;4993832;28;20261;-64
2022/11/02 05:18:25;;;;;;;1.50;1.40;;;9.30;99.90;;;;;;4993811;28;20265;-63
2022/11/02 05:20:53;;;;;;;3.50;1.85;;;9.20;99.90;;;;;;4993938;28;20203;-63
2022/11/02 05:23:19;;;;;;;1.75;1.65;;;9.30;99.90;;;;;;4993446;28;20171;-65
2022/11/02 05:26:02;;;;;;;1.60;1.50;;;9.30;99.90;;;;;;4994045;28;20183;-65
2022/11/02 05:28:29;;;;;;;1.60;1.50;;;9.30;99.90;;;;;;4993623;28;20505;-64
2022/11/02 05:30:58;;;;;;;1.65;1.55;;;9.40;99.90;;;;;;4993852;28;20547;-64
2022/11/02 05:33:24;;;;;;;2.75;1.70;;;9.50;99.90;;;;;;4993386;28;20218;-64
2022/11/02 05:35:49;;;;;;;2.97;1.57;;;9.60;99.90;;;;;;4993961;28;20583;-63
2022/11/02 05:38:15;;;;;;;1.57;1.47;;;9.60;99.90;;;;;;4993684;28;20282;-64
2022/11/02 05:40:40;;;;;;;3.13;1.50;;;9.70;99.90;;;;;;4993766;28;20203;-65
2022/11/02 05:43:08;;;;;;;1.40;1.40;;;9.80;99.90;;;;;;4993550;28;20632;-63
2022/11/02 05:45:34;;;;;;;1.95;1.73;;;9.90;99.90;;;;;;4993576;28;20214;-65
2022/11/02 05:48:01;;;;;;;1.80;1.70;;;10.10;99.90;;;;;;4993327;28;20194;-63
2022/11/02 05:50:27;;;;;;;3.70;1.20;;;10.20;99.90;;;;;;4993808;28;20183;-64
2022/11/02 05:52:53;;;;;;;2.83;1.50;;;10.30;99.90;;;;;;4993232;28;20639;-63
2022/11/02 05:55:19;;;;;;;1.10;1.00;;;10.50;99.90;;;;;;4976413;28;20207;-64
2022/11/02 05:57:53;;;;;;;2.40;1.20;;;10.60;99.90;;;;;;4993410;28;20449;-62
2022/11/02 06:00:19;;;;;;;0.80;0.80;;;10.70;99.90;;;;;;4993567;28;20563;-66
2022/11/02 06:02:45;;;;;;;0.98;0.98;;;10.90;99.90;;;;;;4992474;28;20199;-65
2022/11/02 06:05:11;;;;;;;1.58;1.40;;;11.00;99.90;;;;;;4993244;28;20207;-63
2022/11/02 06:07:36;;;;;;;1.20;1.20;;;11.10;99.90;;;;;;4993369;28;20187;-64
2022/11/02 06:10:02;;;;;;;3.20;1.00;;;11.10;99.90;;;;;;4993564;28;20230;-65
2022/11/02 06:12:28;;;;;;;1.43;1.33;;;11.10;99.90;;;;;;4993495;28;20271;-64
2022/11/02 06:14:53;;;;;;;0.90;0.90;;;11.20;99.90;;;;;;4993061;28;20447;-65
2022/11/02 06:17:19;;;;;;;1.00;1.00;;;11.20;99.90;;;;;;4993784;28;20178;-65
2022/11/02 06:19:44;;;;;;;3.10;1.70;;;11.30;99.90;;;;;;4996978;28;20199;-64
2022/11/02 06:22:10;;;;;;;1.07;1.07;;;11.30;99.90;;;;;;4997232;28;20191;-65
2022/11/02 06:24:36;;;;;;;1.30;1.20;;;11.30;99.90;;;;;;4996097;28;20192;-66
2022/11/02 06:27:01;;;;;;;1.40;1.30;;;11.40;99.90;;;;;;4997212;28;20184;-65
2022/11/02 06:29:27;;;;;;;1.97;1.50;;;11.40;99.90;;;;;;4996989;28;20181;-64
2022/11/02 06:31:52;;;;;;;6.63;5.30;;;11.40;99.90;;;;;;4996811;28;20175;-64
2022/11/02 06:34:18;;;;;;;2.20;1.73;;;11.50;99.90;;;;;;4996183;28;20197;-65
2022/11/02 06:36:43;;;;;;;1.07;1.07;;;11.50;99.90;;;;;;4995968;28;20181;-65
2022/11/02 06:39:09;;;;;;;2.40;1.27;;;11.60;99.90;;;;;;4996273;28;20210;-63
2022/11/02 06:41:35;;;;;;;2.10;1.50;;;11.60;99.90;;;;;;4995959;28;20174;-65
2022/11/02 06:44:00;;;;;;;1.80;1.70;;;11.70;99.90;;;;;;4982060;28;20241;-64
2022/11/02 06:46:26;;;;;;;4.17;2.60;;;11.80;99.90;;;;;;4995877;28;20184;-65
2022/11/02 06:48:51;;;;;;;7.60;3.77;;;11.90;99.90;;;;;;4996632;28;20179;-64
2022/11/02 06:51:17;;;;;;;4.83;2.93;;;12.00;99.90;;;;;;4996951;28;20553;-64
2022/11/02 06:53:42;;;;;;;2.27;1.50;;;12.10;99.90;;;;;;4996117;28;20671;-65
2022/11/02 06:56:08;;;;;;;3.13;2.10;;;12.10;99.90;;;;;;4996266;28;20186;-63
2022/11/02 06:58:34;;;;;;;1.90;1.40;;;12.20;99.90;;;;;;4996326;28;20181;-65
2022/11/02 07:01:08;;;;;;;1.50;1.40;;;12.40;99.90;;;;;;4997298;28;20464;-65
2022/11/02 07:03:34;;;;;;;3.57;1.50;;;12.50;99.90;;;;;;4997609;28;20638;-66
2022/11/02 07:06:00;;;;;;;1.57;1.30;;;12.70;99.90;;;;;;4997885;28;20576;-64
2022/11/02 07:08:26;;;;;;;3.93;1.30;;;12.80;99.90;;;;;;4999030;28;20843;-64
2022/11/02 07:10:52;;;;;;;3.47;1.00;;;12.90;99.90;;;;;;4982100;28;20413;-65
2022/11/02 07:13:18;;;;;;;6.47;1.60;;;13.00;99.90;;;;;;4996999;28;20433;-65
2022/11/02 07:15:44;;;;;;;1.00;1.00;;;13.00;99.90;;;;;;4996381;28;20396;-64
2022/11/02 07:18:11;;;;;;;1.90;1.20;;;13.10;99.90;;;;;;4996856;28;20509;-65
2022/11/02 07:20:37;;;;;;;3.00;1.10;;;13.10;99.90;;;;;;4998696;28;20501;-65
2022/11/02 07:23:03;;;;;;;1.63;1.53;;;13.10;99.90;;;;;;4996459;28;20417;-63
2022/11/02 07:25:31;;;;;;;1.53;1.43;;;13.10;99.90;;;;;;4995531;28;20501;-66
2022/11/02 07:27:58;;;;;;;1.17;1.00;;;13.10;99.90;;;;;;4978087;28;20410;-64
2022/11/02 07:30:25;;;;;;;1.63;1.43;;;13.10;99.90;;;;;;4977129;28;20449;-65
2022/11/02 07:32:51;;;;;;;4.83;1.53;;;13.20;99.90;;;;;;4995629;28;20415;-63
2022/11/02 07:35:18;;;;;;;1.40;1.27;;;13.20;99.90;;;;;;4977759;28;20446;-65
2022/11/02 07:37:53;;;;;;;7.80;1.70;;;13.40;99.90;;;;;;4995644;28;20761;-64
2022/11/02 07:40:18;;;;;;;6.60;2.17;;;13.50;99.90;;;;;;4995627;28;20789;-65
2022/11/02 07:42:45;;;;;;;3.20;1.90;;;13.70;99.90;;;;;;4995453;28;20410;-65
2022/11/02 07:45:11;;;;;;;1.60;1.50;;;13.90;99.90;;;;;;4995107;28;20564;-64
2022/11/02 07:47:44;;;;;;;2.30;1.43;;;14.00;99.90;;;;;;4977789;28;20382;-64
2022/11/02 07:50:11;;;;;;;2.93;2.00;;;14.20;99.90;;;;;;4995382;28;20386;-64
2022/11/02 07:52:47;;;;;;;6.53;2.13;;;14.20;99.90;;;;;;4995106;28;20751;-65
2022/11/02 07:55:18;;;;;;;2.00;1.90;;;14.20;99.90;;;;;;4974247;28;20443;-65
2022/11/02 07:57:55;;;;;;;2.17;1.97;;;14.10;99.90;;;;;;4975834;28;20442;-64
2022/11/02 08:00:21;;;;;;;3.13;1.70;;;14.00;99.90;;;;;;4975846;28;20909;-65
2022/11/02 08:02:47;;;;;;;3.03;1.90;;;14.00;99.90;;;;;;4975358;28;20422;-64
2022/11/02 08:05:12;;;;;;;2.53;2.00;;;14.00;99.90;;;;;;4982745;28;20462;-66
2022/11/02 08:07:38;;;;;;;3.93;1.80;;;14.00;99.90;;;;;;4995221;28;20171;-64
2022/11/02 08:10:04;;;;;;;2.90;2.03;;;14.00;99.90;;;;;;4995180;28;20521;-65
2022/11/02 08:12:29;;;;;;;1.87;1.63;;;14.10;99.90;;;;;;4995033;28;20187;-65
2022/11/02 08:14:56;;;;;;;1.83;1.70;;;14.20;99.90;;;;;;4994482;28;20772;-65
2022/11/02 08:17:23;;;;;;;3.13;1.50;;;14.40;99.90;;;;;;4995086;28;20186;-65
2022/11/02 08:19:49;;;;;;;1.50;1.40;;;14.70;99.90;;;;;;4994724;28;20791;-65
2022/11/02 08:22:14;;;;;;;2.77;2.33;;;14.90;99.90;;;;;;4994370;28;20450;-65
2022/11/02 08:24:40;;;;;;;2.33;1.30;;;15.10;99.90;;;;;;4994360;28;20429;-64
2022/11/02 08:27:05;;;;;;;1.90;1.80;;;15.50;99.90;;;;;;4994586;28;20171;-65
2022/11/02 08:29:31;;;;;;;1.70;1.57;;;15.90;99.90;;;;;;4994782;28;20186;-65
2022/11/02 08:31:57;;;;;;;5.60;1.40;;;16.20;99.90;;;;;;4994621;28;20674;-66
2022/11/02 08:34:22;;;;;;;1.57;1.47;;;16.50;99.90;;;;;;4994179;28;20675;-65
2022/11/02 08:36:48;;;;;;;3.70;1.30;;;16.80;99.90;;;;;;4994706;28;20208;-65
2022/11/02 08:39:13;;;;;;;4.00;1.70;;;17.00;99.90;;;;;;4994667;28;20178;-65
2022/11/02 08:41:39;;;;;;;1.50;1.40;;;17.20;99.90;;;;;;4993875;28;20254;-65
2022/11/02 08:44:04;;;;;;;3.87;1.70;;;17.40;99.90;;;;;;4993959;28;20187;-66
2022/11/02 08:46:30;;;;;;;2.53;1.93;;;17.70;99.90;;;;;;4994492;28;20176;-64
2022/11/02 08:48:55;;;;;;;3.20;1.57;;;18.00;99.90;;;;;;4994484;28;20182;-65
2022/11/02 08:51:21;;;;;;;4.83;2.50;;;18.10;99.90;;;;;;4994097;28;20290;-65
2022/11/02 08:53:47;;;;;;;2.43;2.00;;;18.20;99.90;;;;;;4993837;28;20684;-66
2022/11/02 08:56:12;;;;;;;2.90;1.83;;;18.20;99.90;;;;;;4994465;28;20172;-64
2022/11/02 08:58:38;;;;;;;2.83;2.00;;;18.20;99.90;;;;;;4994244;28;20180;-65
2022/11/02 09:01:03;;;;;;;5.83;2.80;;;18.20;99.90;;;;;;4993798;28;20541;-64
2022/11/02 09:03:29;;;;;;;3.50;2.40;;;18.20;99.90;;;;;;4993565;28;20187;-65
2022/11/02 09:05:59;;;;;;;5.70;1.57;;;18.20;99.90;;;;;;4993921;28;20327;-64
2022/11/02 09:08:26;;;;;;;3.40;1.80;;;18.20;99.90;;;;;;4995083;28;20192;-64
2022/11/02 09:10:52;;;;;;;1.60;1.50;;;18.20;99.90;;;;;;4993779;28;20442;-64
2022/11/02 09:13:19;;;;;;;3.97;1.37;;;18.10;99.90;;;;;;4993211;28;20907;-65
2022/11/02 09:15:48;;;;;;;3.17;1.20;;;18.10;99.90;;;;;;4994037;28;20514;-66
2022/11/02 09:18:14;;;;;;;1.50;1.40;;;18.10;99.90;;;;;;4993989;28;20393;-66
2022/11/02 09:20:40;;;;;;;3.63;1.97;;;18.10;99.90;;;;;;4993618;28;21031;-63
2022/11/02 09:23:05;;;;;;;3.80;1.67;;;18.00;99.90;;;;;;4993132;28;20181;-65
2022/11/02 09:25:31;;;;;;;6.17;1.80;;;18.00;99.90;;;;;;4993648;28;20214;-64
2022/11/02 09:27:57;;;;;;;1.77;1.67;;;17.80;99.90;;;;;;4993672;28;20191;-64
2022/11/02 09:30:24;;;;;;;2.80;1.47;;;17.70;99.90;;;;;;4993883;28;20729;-66
2022/11/02 09:32:57;;;;;;;2.30;1.47;;;17.60;99.90;;;;;;4992940;28;20182;-65
2022/11/02 09:35:24;;;;;;;2.37;1.23;;;17.50;99.90;;;;;;4993904;28;20833;-65
2022/11/02 09:37:50;;;;;;;5.97;1.63;;;17.40;99.90;;;;;;4993724;28;20451;-64
2022/11/02 09:40:38;;;;;;;1.50;1.40;;;17.30;99.90;;;;;;4993966;28;20495;-64
2022/11/02 09:43:21;;;;;;;1.77;1.30;;;17.40;99.90;;;;;;4993167;28;20922;-64
2022/11/02 09:46:00;;;;;;;3.53;3.00;;;17.40;99.90;;;;;;4993501;28;20407;-66
2022/11/02 09:48:25;;;;;;;2.83;2.63;;;17.40;99.90;;;;;;4993899;28;20457;-66
2022/11/02 09:50:59;;;;;;;2.00;1.80;;;17.30;99.90;;;;;;4993962;28;20417;-65
2022/11/02 09:53:48;;;;;;;3.23;1.70;;;17.30;99.90;;;;;;4995129;28;20186;-64
2022/11/02 09:56:15;;;;;;;6.47;1.37;;;17.30;99.90;;;;;;4997882;28;20415;-63
2022/11/02 09:58:44;;;;;;;1.83;0.97;;;17.40;99.90;;;;;;4997494;28;20384;-64
2022/11/02 10:01:48;;;;;;;1.57;1.23;;;17.30;99.90;;;;;;4997289;28;20444;-65
2022/11/02 10:04:42;;;;;;;3.63;1.00;;;17.40;99.90;;;;;;4977392;28;20518;-65
2022/11/02 10:07:21;;;;;;;2.87;1.30;;;17.50;99.90;;;;;;4978018;28;20394;-66
2022/11/02 10:10:14;;;;;;;2.93;0.90;;;17.40;99.90;;;;;;4978060;28;20475;-65
2022/11/02 10:12:50;;;;;;;3.37;1.40;;;17.30;99.90;;;;;;4988252;28;20418;-65
2022/11/02 10:15:39;;;;;;;2.67;1.37;;;17.20;99.90;;;;;;4997084;28;20421;-65
2022/11/02 10:18:08;;;;;;;2.57;1.13;;;17.00;99.90;;;;;;4989501;28;20921;-65
2022/11/02 10:20:39;;;;;;;1.53;1.30;;;17.00;99.90;;;;;;4997201;28;20461;-66
2022/11/02 10:23:07;;;;;;;2.37;1.37;;;17.10;99.90;;;;;;4996524;28;20978;-64
2022/11/02 10:25:34;;;;;;;20.47;1.23;;;17.10;99.90;;;;;;4996740;28;20426;-65
2022/11/02 10:28:05;;;;;;;1.80;1.13;;;17.20;99.90;;;;;;4997125;28;20815;-64
2022/11/02 10:30:31;;;;;;;0.87;0.87;;;17.30;99.90;;;;;;4996635;28;20787;-64
2022/11/02 10:32:57;;;;;;;3.30;1.20;;;17.30;99.90;;;;;;4996523;28;20390;-64
2022/11/02 10:35:47;;;;;;;1.03;0.90;;;17.40;99.90;;;;;;4996542;28;20219;-66
2022/11/02 10:38:37;;;;;;;6.23;1.30;;;17.30;99.90;;;;;;4997098;28;20418;-66
2022/11/02 10:41:27;;;;;;;2.00;0.83;;;17.40;99.90;;;;;;4996504;28;20471;-64
2022/11/02 10:44:25;;;;;;;4.33;1.20;;;17.40;99.90;;;;;;4996033;28;20775;-64
2022/11/02 10:47:03;;;;;;;2.10;1.57;;;17.40;99.90;;;;;;4996680;28;20389;-66
2022/11/02 10:49:57;;;;;;;2.73;1.10;;;17.40;99.90;;;;;;4996524;28;20445;-65
2022/11/02 10:52:23;;;;;;;3.13;1.53;;;17.40;99.90;;;;;;4977260;28;20422;-64
2022/11/02 10:54:50;;;;;;;2.83;1.47;;;17.40;99.90;;;;;;4976842;28;20479;-65
2022/11/02 10:57:24;;;;;;;6.40;1.80;;;17.50;99.90;;;;;;4959937;28;20831;-65
2022/11/02 11:00:28;;;;;;;2.40;0.80;;;17.50;99.90;;;;;;4977587;28;20426;-65
2022/11/02 11:03:15;;;;;;;4.43;1.30;;;17.40;99.90;;;;;;4995776;28;20468;-65
2022/11/02 11:05:49;;;;;;;2.53;1.57;;;17.30;99.90;;;;;;4996124;28;20537;-65
2022/11/02 11:08:29;;;;;;;4.33;1.30;;;17.20;99.90;;;;;;4996286;28;20763;-65
2022/11/02 11:11:08;;;;;;;2.57;1.40;;;17.10;99.90;;;;;;4995820;28;20790;-66
2022/11/02 11:13:34;;;;;;;1.53;1.07;;;17.10;99.90;;;;;;4995700;28;20420;-65
2022/11/02 11:16:00;;;;;;;1.97;1.10;;;17.00;99.90;;;;;;4996079;28;20390;-64
2022/11/02 11:18:25;;;;;;;3.37;0.90;;;17.00;99.90;;;;;;4995996;28;20887;-66
2022/11/02 11:20:54;;;;;;;2.00;1.00;;;16.90;99.90;;;;;;4995636;28;20458;-65
2022/11/02 11:23:25;;;;;;;2.33;1.37;;;16.80;99.90;;;;;;4995423;28;20178;-65
2022/11/02 11:26:03;;;;;;;1.20;1.10;;;16.70;99.90;;;;;;4978403;28;20962;-65
2022/11/02 11:28:29;;;;;;;2.20;1.47;;;16.80;99.90;;;;;;4995902;28;20769;-65
2022/11/02 11:31:13;;;;;;;5.17;1.17;;;16.70;99.90;;;;;;4995595;28;20427;-64
2022/11/02 11:33:49;;;;;;;0.73;0.73;;;16.60;99.90;;;;;;4995421;28;20287;-64
2022/11/02 11:36:30;;;;;;;2.07;1.67;;;16.60;99.90;;;;;;4995917;28;20391;-64
2022/11/02 11:39:05;;;;;;;1.20;1.10;;;16.60;99.90;;;;;;4995709;28;20513;-65
2022/11/02 11:41:33;;;;;;;1.93;1.30;;;16.50;99.90;;;;;;4995485;28;20477;-64
2022/11/02 11:44:00;;;;;;;1.30;1.10;;;16.60;99.90;;;;;;4977520;28;20990;-65
2022/11/02 11:46:45;;;;;;;2.87;1.07;;;16.50;99.90;;;;;;4995793;28;20471;-64
2022/11/02 11:49:41;;;;;;;2.27;1.30;;;16.50;99.90;;;;;;4995370;28;20411;-64
2022/11/02 11:52:17;;;;;;;1.73;1.20;;;16.50;99.90;;;;;;4994114;28;20503;-65
2022/11/02 11:54:52;;;;;;;2.60;1.30;;;16.60;99.90;;;;;;4994720;28;20456;-64
2022/11/02 11:57:32;;;;;;;1.97;1.70;;;16.70;99.90;;;;;;4995275;28;20401;-65
2022/11/02 12:00:03;;;;;;;5.97;1.97;;;16.80;99.90;;;;;;4995110;28;21032;-65
2022/11/02 12:02:31;;;;;;;2.20;1.47;;;16.80;99.90;;;;;;4976813;28;20427;-64
2022/11/02 12:05:00;;;;;;;1.60;1.00;;;16.70;99.90;;;;;;4994650;28;20454;-63
2022/11/02 12:07:47;;;;;;;0.97;0.80;;;16.70;99.90;;;;;;4994949;28;20383;-66
2022/11/02 12:10:38;;;;;;;2.10;1.33;;;16.70;99.90;;;;;;4977628;28;20914;-64
2022/11/02 12:13:22;;;;;;;2.77;1.20;;;16.80;99.90;;;;;;4994886;28;20417;-63
2022/11/02 12:16:01;;;;;;;3.63;1.33;;;16.90;99.90;;;;;;4994247;28;20383;-64
2022/11/02 12:18:45;;;;;;;1.90;1.23;;;16.90;99.90;;;;;;4994973;28;20390;-70
2022/11/02 12:21:22;;;;;;;2.30;1.40;;;17.00;99.90;;;;;;4994366;28;20466;-70
2022/11/02 12:24:08;;;;;;;2.57;1.50;;;17.10;99.90;;;;;;4994341;28;20485;-70
2022/11/02 12:26:45;;;;;;;0.80;0.80;;;17.20;99.90;;;;;;4994354;28;20422;-66
2022/11/02 12:29:40;;;;;;;2.30;0.90;;;17.20;99.90;;;;;;4994623;28;20406;-63
2022/11/02 12:32:26;;;;;;;0.63;0.63;;;17.30;99.90;;;;;;4994564;28;20396;-64
2022/11/02 12:35:00;;;;;;;1.87;1.17;;;17.30;99.90;;;;;;4993829;28;20509;-65
2022/11/02 12:38:03;;;;;;;1.70;1.60;;;17.40;99.90;;;;;;4994168;28;20461;-66
2022/11/02 12:40:56;;;;;;;2.30;1.13;;;17.40;99.90;;;;;;4994390;28;20488;-64
2022/11/02 12:43:36;;;;;;;1.03;1.00;;;17.30;99.90;;;;;;4994057;28;20767;-67
2022/11/02 12:46:21;;;;;;;1.27;1.17;;;17.30;99.90;;;;;;4994336;28;20445;-63
2022/11/02 12:49:06;;;;;;;1.63;1.03;;;17.10;99.90;;;;;;4994088;28;20878;-67
2022/11/02 12:51:59;;;;;;;4.60;1.20;;;16.90;99.90;;;;;;4994048;28;20396;-66
2022/11/02 12:54:49;;;;;;;1.73;1.27;;;16.80;99.90;;;;;;4994025;28;20408;-64
2022/11/02 12:57:19;;;;;;;1.10;0.90;;;16.70;99.90;;;;;;4993597;28;20434;-67
2022/11/02 12:59:48;;;;;;;5.83;1.10;;;16.60;99.90;;;;;;4993810;28;20435;-69
2022/11/02 13:02:32;;;;;;;3.90;1.10;;;16.60;99.90;;;;;;4994090;28;20408;-70
2022/11/02 13:05:13;;;;;;;1.80;0.80;;;16.60;99.90;;;;;;4992479;28;20438;-70
2022/11/02 13:07:56;;;;;;;2.17;1.20;;;16.70;99.90;;;;;;4993747;28;20516;-68
2022/11/02 13:10:29;;;;;;;1.90;0.80;;;16.70;99.90;;;;;;4993768;28;20478;-69
2022/11/02 13:12:58;;;;;;;1.20;0.90;;;16.70;99.90;;;;;;4993681;28;20479;-67
2022/11/02 13:15:26;;;;;;;1.13;0.73;;;16.70;99.90;;;;;;4993822;28;20424;-70
2022/11/02 13:17:59;;;;;;;1.53;1.10;;;16.70;99.90;;;;;;4993260;28;20571;-64
2022/11/02 13:20:38;;;;;;;0.90;0.80;;;16.60;99.90;;;;;;4994252;28;20454;-66
2022/11/02 13:23:35;;;;;;;2.33;0.87;;;16.60;99.80;;;;;;4993576;28;20409;-64
2022/11/02 13:26:06;;;;;;;1.53;1.40;;;16.60;99.80;;;;;;4993682;28;20433;-63
2022/11/02 13:28:46;;;;;;;1.47;1.37;;;16.40;99.50;;;;;;4993083;28;20404;-67
2022/11/02 13:31:35;;;;;;;2.67;1.13;;;16.40;99.90;;;;;;4976378;28;20412;-67
2022/11/02 13:34:33;;;;;;;2.00;1.47;;;16.40;99.90;;;;;;5003694;28;20434;-65
2022/11/02 13:37:08;;;;;;;1.63;1.10;;;16.30;99.90;;;;;;5002594;28;20418;-65
2022/11/02 13:39:41;;;;;;;2.23;0.93;;;16.30;99.90;;;;;;4993535;28;20390;-67
2022/11/02 13:42:18;;;;;;;1.37;0.70;;;16.20;99.80;;;;;;4993917;28;20407;-65
2022/11/02 13:45:14;;;;;;;2.10;1.27;;;16.20;99.80;;;;;;4993283;28;20473;-65
2022/11/02 13:47:40;;;;;;;1.53;0.80;;;16.20;99.30;;;;;;4993498;28;20430;-65
2022/11/02 13:50:12;;;;;;;4.73;1.37;;;16.10;99.40;;;;;;4993706;28;20374;-69
2022/11/02 13:53:07;;;;;;;6.00;0.90;;;16.00;99.90;;;;;;4992892;28;20206;-64
2022/11/02 13:55:46;;;;;;;1.60;1.27;;;16.00;99.90;;;;;;4974673;28;20984;-68
2022/11/02 13:58:30;;;;;;;1.80;1.07;;;16.00;99.90;;;;;;4993633;28;20411;-68
2022/11/02 14:01:03;;;;;;;1.37;1.10;;;16.00;99.90;;;;;;4993761;28;20818;-68
2022/11/02 14:03:52;;;;;;;5.83;1.23;;;16.00;99.90;;;;;;4992618;28;20993;-67
2022/11/02 14:06:19;;;;;;;1.37;0.90;;;15.90;99.90;;;;;;4993312;28;20426;-70
2022/11/02 14:08:57;;;;;;;3.27;1.50;;;15.90;99.90;;;;;;4993384;28;20381;-67
2022/11/02 14:11:40;;;;;;;1.23;0.80;;;15.80;99.90;;;;;;4975982;28;20430;-66
2022/11/02 14:14:26;;;;;;;1.07;1.00;;;15.80;99.90;;;;;;4992665;28;20480;-63
2022/11/02 14:16:52;;;;;;;1.43;1.13;;;15.70;99.90;;;;;;4993523;28;20432;-70
2022/11/02 14:19:17;;;;;;;1.17;0.70;;;15.70;99.90;;;;;;4993299;28;20388;-67
2022/11/02 14:21:58;;;;;;;9.00;1.27;;;15.60;99.90;;;;;;4993328;28;20290;-68
2022/11/02 14:24:35;;;;;;;2.27;1.20;;;15.50;99.90;;;;;;4992605;28;20210;-65
2022/11/02 14:27:23;;;;;;;3.63;1.60;;;15.40;99.90;;;;;;4993328;28;20388;-68
2022/11/02 14:29:52;;;;;;;1.63;0.90;;;15.30;99.90;;;;;;4993416;28;20385;-69
2022/11/02 14:32:21;;;;;;;1.83;1.23;;;15.30;99.90;;;;;;4992936;28;20414;-67
2022/11/02 14:35:26;;;;;;;2.17;1.33;;;15.20;99.90;;;;;;4992604;28;20548;-68
2022/11/02 14:38:22;;;;;;;2.87;2.30;;;15.10;99.90;;;;;;4993067;28;20423;-64
2022/11/02 14:41:07;;;;;;;2.50;1.93;;;15.10;99.90;;;;;;4997011;28;20446;-64
2022/11/02 14:44:06;;;;;;;1.73;1.23;;;15.10;99.90;;;;;;4996083;28;20834;-66
2022/11/02 14:46:56;;;;;;;0.80;0.80;;;15.10;99.90;;;;;;4996555;28;20399;-68
2022/11/02 14:49:27;;;;;;;1.87;1.60;;;15.00;99.90;;;;;;4996466;28;20414;-66
2022/11/02 14:52:03;;;;;;;2.53;1.60;;;15.00;99.90;;;;;;4996143;28;20509;-70
2022/11/02 14:54:33;;;;;;;6.13;1.43;;;15.00;99.90;;;;;;4996050;28;20918;-66
2022/11/02 14:57:17;;;;;;;2.33;1.20;;;14.90;99.90;;;;;;4996078;28;20406;-68
2022/11/02 14:59:49;;;;;;;3.27;1.20;;;14.80;99.90;;;;;;4996185;28;20919;-67
2022/11/02 15:02:21;;;;;;;3.60;1.20;;;14.70;99.90;;;;;;4996042;28;20752;-65
2022/11/02 15:04:53;;;;;;;1.43;1.20;;;14.60;99.90;;;;;;4995592;28;20806;-68
2022/11/02 15:07:22;;;;;;;1.63;1.10;;;14.60;99.90;;;;;;4996413;28;20403;-65
2022/11/02 15:09:58;;;;;;;1.43;1.10;;;14.60;99.90;;;;;;4996225;28;20420;-67
2022/11/02 15:12:30;;;;;;;4.97;1.90;;;14.60;99.90;;;;;;4995821;28;20933;-65
2022/11/02 15:15:31;;;;;;;2.70;1.20;;;14.50;99.90;;;;;;4995999;28;20430;-66
2022/11/02 15:17:56;;;;;;;2.90;1.43;;;14.50;99.90;;;;;;4994291;28;20426;-70
2022/11/02 15:20:27;;;;;;;4.73;1.23;;;14.50;99.90;;;;;;5010411;28;20870;-69
2022/11/02 15:23:15;;;;;;;4.30;2.33;;;14.40;99.90;;;;;;4995496;28;20535;-66
2022/11/02 15:25:47;;;;;;;5.37;2.00;;;14.40;99.90;;;;;;4993410;28;20490;-70
2022/11/02 15:28:16;;;;;;;2.23;1.27;;;14.30;99.90;;;;;;4996033;28;20398;-67
2022/11/02 15:30:55;;;;;;;1.70;1.40;;;14.30;99.90;;;;;;4995407;28;20925;-71
2022/11/02 15:33:37;;;;;;;2.50;1.53;;;14.30;99.90;;;;;;4995148;28;20916;-67
2022/11/02 15:36:06;;;;;;;2.57;1.27;;;14.20;99.90;;;;;;4995694;28;20402;-67
2022/11/02 15:38:32;;;;;;;1.50;1.23;;;14.10;99.90;;;;;;4995472;28;20465;-68
2022/11/02 15:41:27;;;;;;;4.40;1.60;;;14.10;99.90;;;;;;4995566;28;20456;-64
2022/11/02 15:44:14;;;;;;;1.97;1.50;;;14.00;99.90;;;;;;4994665;28;20976;-68
2022/11/02 15:47:05;;;;;;;2.00;1.07;;;14.00;99.90;;;;;;4994541;28;20485;-72
2022/11/02 15:49:55;;;;;;;1.53;1.37;;;13.90;99.90;;;;;;4995491;28;20381;-67
2022/11/02 15:52:55;;;;;;;2.13;1.13;;;13.80;99.90;;;;;;4994825;28;20933;-65
2022/11/02 15:55:46;;;;;;;1.83;1.40;;;13.80;99.90;;;;;;4977811;28;20488;-67
2022/11/02 15:58:48;;;;;;;3.70;2.17;;;13.70;99.90;;;;;;4994460;28;20410;-69
2022/11/02 16:01:25;;;;;;;5.30;2.37;;;13.60;99.90;;;;;;4995145;28;20460;-69
2022/11/02 16:03:57;;;;;;;2.97;1.53;;;13.60;99.90;;;;;;4994214;28;20445;-68
2022/11/02 16:06:38;;;;;;;1.60;1.50;;;13.40;99.90;;;;;;4994699;28;20959;-68
2022/11/02 16:09:43;;;;;;;1.90;1.63;;;13.30;99.90;;;;;;4995161;28;20418;-68
2022/11/02 16:12:20;;;;;;;1.93;1.70;;;13.10;99.90;;;;;;4950934;29;20440;-68
2022/11/02 16:14:54;;;;;;;2.30;1.67;;;13.00;99.90;;;;;;4934818;29;20439;-68
2022/11/02 16:17:24;;;;;;;2.50;1.50;;;12.90;99.90;;;;;;4934725;29;20431;-68
2022/11/02 16:19:51;;;;;;;4.43;2.00;;;12.80;99.90;;;;;;4919175;29;20592;-67
2022/11/02 16:22:25;;;;;;;2.53;1.83;;;12.70;99.90;;;;;;4938515;29;20487;-68
2022/11/02 16:24:52;;;;;;;3.03;1.40;;;12.70;99.90;;;;;;4952674;29;20545;-68
2022/11/02 16:27:19;;;;;;;4.93;1.77;;;12.50;99.90;;;;;;4952986;29;20554;-69
2022/11/02 16:29:45;;;;;;;1.83;1.43;;;12.40;99.90;;;;;;4953901;29;20420;-68
2022/11/02 16:32:11;;;;;;;5.10;2.10;;;12.40;99.90;;;;;;4940672;29;20926;-67
2022/11/02 16:34:38;;;;;;;2.00;1.33;;;12.30;99.90;;;;;;4934414;29;20704;-66
2022/11/02 16:37:04;;;;;;;6.20;2.37;;;12.30;99.90;;;;;;4934245;29;20227;-68
2022/11/02 16:39:36;;;;;;;2.00;1.30;;;12.20;99.90;;;;;;4934473;29;20423;-68
2022/11/02 16:42:15;;;;;;;3.17;1.63;;;12.10;99.90;;;;;;4924887;28;20427;-67
2022/11/02 16:44:42;;;;;;;3.80;2.03;;;12.00;99.90;;;;;;4974341;28;20422;-70
2022/11/02 16:47:08;;;;;;;5.63;3.53;;;12.00;99.90;;;;;;4975385;28;20412;-66
2022/11/02 16:49:53;;;;;;;2.87;2.07;;;11.90;99.90;;;;;;4989835;28;20826;-64
2022/11/02 16:52:21;;;;;;;3.70;1.87;;;11.80;99.90;;;;;;4988162;28;20781;-71
2022/11/02 16:54:47;;;;;;;3.95;1.80;;;11.70;99.90;;;;;;4993933;28;20959;-68
2022/11/02 16:57:42;;;;;;;5.40;2.40;;;11.60;99.90;;;;;;4994582;28;20182;-68
2022/11/02 17:00:18;;;;;;;2.35;2.22;;;11.50;99.90;;;;;;4994344;28;20208;-72
2022/11/02 17:02:44;;;;;;;3.38;2.17;;;11.50;99.90;;;;;;4993368;28;20184;-68
2022/11/02 17:05:24;;;;;;;3.45;2.10;;;11.40;99.90;;;;;;4993866;28;20715;-67
2022/11/02 17:07:58;;;;;;;1.52;1.42;;;11.40;99.90;;;;;;4993970;28;20176;-64
2022/11/02 17:10:26;;;;;;;1.80;1.70;;;11.30;99.90;;;;;;4994215;28;20180;-67
2022/11/02 17:12:53;;;;;;;3.22;2.30;;;11.30;99.90;;;;;;4996247;28;20180;-67
2022/11/02 17:15:21;;;;;;;4.00;2.10;;;11.30;99.90;;;;;;4993749;28;20629;-73
2022/11/02 17:17:47;;;;;;;2.10;1.90;;;11.20;99.90;;;;;;4992460;28;20211;-63
2022/11/02 17:20:14;;;;;;;2.63;2.40;;;11.20;99.90;;;;;;4993880;28;20247;-65
2022/11/02 17:22:53;;;;;;;2.28;2.08;;;11.10;99.90;;;;;;4993066;28;20788;-68
2022/11/02 17:25:21;;;;;;;5.38;2.55;;;11.00;99.90;;;;;;4993933;28;20193;-67
2022/11/02 17:27:47;;;;;;;2.17;2.00;;;11.00;99.90;;;;;;5000319;28;20183;-65
2022/11/02 17:30:31;;;;;;;1.88;1.73;;;11.00;99.90;;;;;;4998502;28;20207;-68
2022/11/02 17:32:57;;;;;;;2.50;2.20;;;10.90;99.90;;;;;;5000454;28;20678;-69
2022/11/02 17:35:25;;;;;;;6.00;2.88;;;10.90;99.90;;;;;;4993754;28;20298;-66